sensor_id;sensor_type;location;lat;lon;timestamp;temperature;humidity
19665;DHT22;9980;51.020;7.772;2023-06-22T00:01:20;22.40;93.30
19665;DHT22;9980;51.020;7.772;2023-06-22T00:03:49;22.40;93.40
19665;DHT22;9980;51.020;7.772;2023-06-22T00:06:16;22.40;93.50
19665;DHT22;9980;51.020;7.772;2023-06-22T00:08:44;22.40;93.60
19665;DHT22;9980;51.020;7.772;2023-06-22T00:11:11;22.40;93.70
19665;DHT22;9980;51.020;7.772;2023-06-22T00:13:39;22.40;93.70
19665;DHT22;9980;51.020;7.772;2023-06-22T00:16:06;22.40;93.80
19665;DHT22;9980;51.020;7.772;2023-06-22T00:18:33;22.30;93.80
19665;DHT22;9980;51.020;7.772;2023-06-22T00:21:00;22.30;93.80
19665;DHT22;9980;51.020;7.772;2023-06-22T00:23:27;22.30;93.90
19665;DHT22;9980;51.020;7.772;2023-06-22T00:25:54;22.30;93.90
19665;DHT22;9980;51.020;7.772;2023-06-22T00:28:21;22.30;93.90
19665;DHT22;9980;51.020;7.772;2023-06-22T00:30:51;22.30;94.00
19665;DHT22;9980;51.020;7.772;2023-06-22T00:33:18;22.30;94.20
19665;DHT22;9980;51.020;7.772;2023-06-22T00:35:45;22.30;94.00
19665;DHT22;9980;51.020;7.772;2023-06-22T00:38:12;22.30;94.10
19665;DHT22;9980;51.020;7.772;2023-06-22T00:40:41;22.30;94.10
19665;DHT22;9980;51.020;7.772;2023-06-22T00:43:08;22.30;94.20
19665;DHT22;9980;51.020;7.772;2023-06-22T00:45:35;22.30;94.20
19665;DHT22;9980;51.020;7.772;2023-06-22T00:48:03;22.30;94.30
19665;DHT22;9980;51.020;7.772;2023-06-22T00:50:32;22.40;94.40
19665;DHT22;9980;51.020;7.772;2023-06-22T00:53:05;22.30;94.20
19665;DHT22;9980;51.020;7.772;2023-06-22T00:55:37;22.30;94.40
19665;DHT22;9980;51.020;7.772;2023-06-22T00:58:10;22.40;94.50
19665;DHT22;9980;51.020;7.772;2023-06-22T01:00:38;22.40;94.50
19665;DHT22;9980;51.020;7.772;2023-06-22T01:03:06;22.40;94.50
19665;DHT22;9980;51.020;7.772;2023-06-22T01:05:38;22.30;94.50
19665;DHT22;9980;51.020;7.772;2023-06-22T01:08:22;22.40;94.40
19665;DHT22;9980;51.020;7.772;2023-06-22T01:11:05;22.40;94.80
19665;DHT22;9980;51.020;7.772;2023-06-22T01:16:21;22.40;94.70
19665;DHT22;9980;51.020;7.772;2023-06-22T01:18:54;22.40;94.80
19665;DHT22;9980;51.020;7.772;2023-06-22T01:21:26;22.40;94.60
19665;DHT22;9980;51.020;7.772;2023-06-22T01:24:17;22.40;94.90
19665;DHT22;9980;51.020;7.772;2023-06-22T01:29:39;22.40;94.90
19665;DHT22;9980;51.020;7.772;2023-06-22T01:32:10;22.40;94.70
19665;DHT22;9980;51.020;7.772;2023-06-22T01:34:38;22.40;94.80
19665;DHT22;9980;51.020;7.772;2023-06-22T01:37:07;22.40;94.80
19665;DHT22;9980;51.020;7.772;2023-06-22T01:39:35;22.40;95.00
19665;DHT22;9980;51.020;7.772;2023-06-22T01:42:03;22.40;95.00
19665;DHT22;9980;51.020;7.772;2023-06-22T01:44:32;22.40;95.10
19665;DHT22;9980;51.020;7.772;2023-06-22T01:47:00;22.40;95.10
19665;DHT22;9980;51.020;7.772;2023-06-22T01:49:28;22.40;95.30
19665;DHT22;9980;51.020;7.772;2023-06-22T01:51:56;22.40;95.10
19665;DHT22;9980;51.020;7.772;2023-06-22T01:54:24;22.40;95.30
19665;DHT22;9980;51.020;7.772;2023-06-22T01:56:51;22.40;95.10
19665;DHT22;9980;51.020;7.772;2023-06-22T02:02:09;22.40;95.70
19665;DHT22;9980;51.020;7.772;2023-06-22T02:04:52;22.40;95.80
19665;DHT22;9980;51.020;7.772;2023-06-22T02:07:23;22.40;95.70
19665;DHT22;9980;51.020;7.772;2023-06-22T02:10:16;22.40;95.50
19665;DHT22;9980;51.020;7.772;2023-06-22T02:12:47;22.40;95.40
19665;DHT22;9980;51.020;7.772;2023-06-22T02:15:15;22.40;95.40
19665;DHT22;9980;51.020;7.772;2023-06-22T02:17:46;22.40;95.50
19665;DHT22;9980;51.020;7.772;2023-06-22T02:20:15;22.40;95.40
19665;DHT22;9980;51.020;7.772;2023-06-22T02:22:42;22.40;95.40
19665;DHT22;9980;51.020;7.772;2023-06-22T02:25:10;22.40;95.60
19665;DHT22;9980;51.020;7.772;2023-06-22T02:27:37;22.40;95.50
19665;DHT22;9980;51.020;7.772;2023-06-22T02:30:09;22.40;95.50
19665;DHT22;9980;51.020;7.772;2023-06-22T02:32:38;22.40;95.50
19665;DHT22;9980;51.020;7.772;2023-06-22T02:35:09;22.40;95.50
19665;DHT22;9980;51.020;7.772;2023-06-22T02:37:37;22.40;95.60
19665;DHT22;9980;51.020;7.772;2023-06-22T02:40:08;22.40;95.60
19665;DHT22;9980;51.020;7.772;2023-06-22T02:42:37;22.40;95.70
19665;DHT22;9980;51.020;7.772;2023-06-22T02:45:04;22.40;95.80
19665;DHT22;9980;51.020;7.772;2023-06-22T02:47:32;22.40;95.90
19665;DHT22;9980;51.020;7.772;2023-06-22T02:49:59;22.40;95.90
19665;DHT22;9980;51.020;7.772;2023-06-22T02:52:27;22.40;95.80
19665;DHT22;9980;51.020;7.772;2023-06-22T02:54:55;22.40;95.70
19665;DHT22;9980;51.020;7.772;2023-06-22T02:57:21;22.40;95.80
19665;DHT22;9980;51.020;7.772;2023-06-22T02:59:49;22.50;95.80
19665;DHT22;9980;51.020;7.772;2023-06-22T03:02:15;22.50;95.90
19665;DHT22;9980;51.020;7.772;2023-06-22T03:04:43;22.50;95.90
19665;DHT22;9980;51.020;7.772;2023-06-22T03:07:10;22.50;95.70
19665;DHT22;9980;51.020;7.772;2023-06-22T03:09:36;22.50;95.80
19665;DHT22;9980;51.020;7.772;2023-06-22T03:12:04;22.50;95.80
19665;DHT22;9980;51.020;7.772;2023-06-22T03:14:42;22.50;95.90
19665;DHT22;9980;51.020;7.772;2023-06-22T03:17:09;22.50;96.10
19665;DHT22;9980;51.020;7.772;2023-06-22T03:19:37;22.50;96.00
19665;DHT22;9980;51.020;7.772;2023-06-22T03:22:04;22.50;95.80
19665;DHT22;9980;51.020;7.772;2023-06-22T03:24:31;22.50;96.00
19665;DHT22;9980;51.020;7.772;2023-06-22T03:26:59;22.50;96.00
19665;DHT22;9980;51.020;7.772;2023-06-22T03:29:26;22.50;96.30
19665;DHT22;9980;51.020;7.772;2023-06-22T03:31:57;22.50;96.30
19665;DHT22;9980;51.020;7.772;2023-06-22T03:34:24;22.60;96.30
19665;DHT22;9980;51.020;7.772;2023-06-22T03:36:52;22.60;96.40
19665;DHT22;9980;51.020;7.772;2023-06-22T03:39:20;22.60;96.60
19665;DHT22;9980;51.020;7.772;2023-06-22T03:41:47;22.60;96.70
19665;DHT22;9980;51.020;7.772;2023-06-22T03:44:14;22.60;96.80
19665;DHT22;9980;51.020;7.772;2023-06-22T03:46:42;22.60;96.70
19665;DHT22;9980;51.020;7.772;2023-06-22T03:49:09;22.60;97.10
19665;DHT22;9980;51.020;7.772;2023-06-22T03:51:36;22.60;97.00
19665;DHT22;9980;51.020;7.772;2023-06-22T03:54:03;22.60;97.60
19665;DHT22;9980;51.020;7.772;2023-06-22T03:56:30;22.60;97.30
19665;DHT22;9980;51.020;7.772;2023-06-22T03:58:57;22.60;97.30
19665;DHT22;9980;51.020;7.772;2023-06-22T04:01:24;22.60;97.50
19665;DHT22;9980;51.020;7.772;2023-06-22T04:03:51;22.60;97.50
19665;DHT22;9980;51.020;7.772;2023-06-22T04:06:18;22.60;97.30
19665;DHT22;9980;51.020;7.772;2023-06-22T04:08:46;22.60;97.70
19665;DHT22;9980;51.020;7.772;2023-06-22T04:11:18;22.60;97.80
19665;DHT22;9980;51.020;7.772;2023-06-22T04:13:45;22.60;97.90
19665;DHT22;9980;51.020;7.772;2023-06-22T04:16:12;22.60;97.70
19665;DHT22;9980;51.020;7.772;2023-06-22T04:18:38;22.60;97.80
19665;DHT22;9980;51.020;7.772;2023-06-22T04:21:05;22.60;97.80
19665;DHT22;9980;51.020;7.772;2023-06-22T04:23:32;22.60;98.00
19665;DHT22;9980;51.020;7.772;2023-06-22T04:25:59;22.60;98.10
19665;DHT22;9980;51.020;7.772;2023-06-22T04:28:26;22.60;98.10
19665;DHT22;9980;51.020;7.772;2023-06-22T04:30:54;22.60;98.40
19665;DHT22;9980;51.020;7.772;2023-06-22T04:33:25;22.60;98.50
19665;DHT22;9980;51.020;7.772;2023-06-22T04:35:52;22.60;98.40
19665;DHT22;9980;51.020;7.772;2023-06-22T04:38:19;22.60;98.40
19665;DHT22;9980;51.020;7.772;2023-06-22T04:40:47;22.60;98.40
19665;DHT22;9980;51.020;7.772;2023-06-22T04:43:15;22.60;98.40
19665;DHT22;9980;51.020;7.772;2023-06-22T04:45:42;22.60;98.30
19665;DHT22;9980;51.020;7.772;2023-06-22T04:48:08;22.60;98.50
19665;DHT22;9980;51.020;7.772;2023-06-22T04:50:36;22.60;98.70
19665;DHT22;9980;51.020;7.772;2023-06-22T04:53:05;22.60;98.70
19665;DHT22;9980;51.020;7.772;2023-06-22T04:55:32;22.60;98.60
19665;DHT22;9980;51.020;7.772;2023-06-22T04:57:59;22.60;98.80
19665;DHT22;9980;51.020;7.772;2023-06-22T05:00:31;22.70;99.00
19665;DHT22;9980;51.020;7.772;2023-06-22T05:02:58;22.70;99.10
19665;DHT22;9980;51.020;7.772;2023-06-22T05:05:44;22.70;99.00
19665;DHT22;9980;51.020;7.772;2023-06-22T05:08:12;22.70;99.30
19665;DHT22;9980;51.020;7.772;2023-06-22T05:10:40;22.70;99.40
19665;DHT22;9980;51.020;7.772;2023-06-22T05:13:25;22.70;99.40
19665;DHT22;9980;51.020;7.772;2023-06-22T05:15:53;22.80;99.50
19665;DHT22;9980;51.020;7.772;2023-06-22T05:18:29;22.80;99.50
19665;DHT22;9980;51.020;7.772;2023-06-22T05:20:58;22.80;99.60
19665;DHT22;9980;51.020;7.772;2023-06-22T05:23:26;22.80;99.60
19665;DHT22;9980;51.020;7.772;2023-06-22T05:25:53;22.80;99.70
19665;DHT22;9980;51.020;7.772;2023-06-22T05:28:21;22.80;99.70
19665;DHT22;9980;51.020;7.772;2023-06-22T05:30:50;22.90;99.80
19665;DHT22;9980;51.020;7.772;2023-06-22T05:33:17;22.90;99.90
19665;DHT22;9980;51.020;7.772;2023-06-22T05:35:44;22.90;99.90
19665;DHT22;9980;51.020;7.772;2023-06-22T05:38:11;22.90;99.90
19665;DHT22;9980;51.020;7.772;2023-06-22T05:40:38;22.90;99.90
19665;DHT22;9980;51.020;7.772;2023-06-22T05:43:05;23.00;99.90
19665;DHT22;9980;51.020;7.772;2023-06-22T05:45:32;23.00;99.90
19665;DHT22;9980;51.020;7.772;2023-06-22T05:47:59;23.00;99.90
19665;DHT22;9980;51.020;7.772;2023-06-22T05:50:28;23.10;99.90
19665;DHT22;9980;51.020;7.772;2023-06-22T05:52:55;23.20;99.90
19665;DHT22;9980;51.020;7.772;2023-06-22T05:55:22;23.20;99.90
19665;DHT22;9980;51.020;7.772;2023-06-22T05:57:49;23.20;99.90
19665;DHT22;9980;51.020;7.772;2023-06-22T06:00:16;23.30;99.90
19665;DHT22;9980;51.020;7.772;2023-06-22T06:02:43;23.40;99.90
19665;DHT22;9980;51.020;7.772;2023-06-22T06:05:14;23.50;99.90
19665;DHT22;9980;51.020;7.772;2023-06-22T06:07:42;23.50;99.90
19665;DHT22;9980;51.020;7.772;2023-06-22T06:10:09;23.60;99.90
19665;DHT22;9980;51.020;7.772;2023-06-22T06:12:36;23.80;99.90
19665;DHT22;9980;51.020;7.772;2023-06-22T06:15:04;23.80;99.90
19665;DHT22;9980;51.020;7.772;2023-06-22T06:17:32;23.90;99.90
19665;DHT22;9980;51.020;7.772;2023-06-22T06:19:59;24.00;99.90
19665;DHT22;9980;51.020;7.772;2023-06-22T06:22:27;24.10;99.90
19665;DHT22;9980;51.020;7.772;2023-06-22T06:24:54;24.20;99.90
19665;DHT22;9980;51.020;7.772;2023-06-22T06:27:22;24.20;99.90
19665;DHT22;9980;51.020;7.772;2023-06-22T06:29:56;24.30;99.90
19665;DHT22;9980;51.020;7.772;2023-06-22T06:32:23;24.40;99.90
19665;DHT22;9980;51.020;7.772;2023-06-22T06:34:50;24.50;99.90
19665;DHT22;9980;51.020;7.772;2023-06-22T06:37:17;24.50;99.90
19665;DHT22;9980;51.020;7.772;2023-06-22T06:39:45;24.60;99.90
19665;DHT22;9980;51.020;7.772;2023-06-22T06:42:11;24.80;99.90
19665;DHT22;9980;51.020;7.772;2023-06-22T06:44:39;24.90;99.80
19665;DHT22;9980;51.020;7.772;2023-06-22T06:47:06;25.00;99.50
19665;DHT22;9980;51.020;7.772;2023-06-22T06:49:33;25.10;99.20
19665;DHT22;9980;51.020;7.772;2023-06-22T06:52:00;25.20;99.10
19665;DHT22;9980;51.020;7.772;2023-06-22T06:54:27;25.30;99.00
19665;DHT22;9980;51.020;7.772;2023-06-22T06:56:54;25.40;99.30
19665;DHT22;9980;51.020;7.772;2023-06-22T06:59:21;25.50;98.80
19665;DHT22;9980;51.020;7.772;2023-06-22T07:01:48;25.50;98.70
19665;DHT22;9980;51.020;7.772;2023-06-22T07:04:15;25.60;99.10
19665;DHT22;9980;51.020;7.772;2023-06-22T07:06:42;25.70;98.70
19665;DHT22;9980;51.020;7.772;2023-06-22T07:09:09;25.80;98.80
19665;DHT22;9980;51.020;7.772;2023-06-22T07:11:36;25.90;98.20
19665;DHT22;9980;51.020;7.772;2023-06-22T07:14:03;26.00;98.20
19665;DHT22;9980;51.020;7.772;2023-06-22T07:16:30;26.10;98.50
19665;DHT22;9980;51.020;7.772;2023-06-22T07:18:58;26.20;98.00
19665;DHT22;9980;51.020;7.772;2023-06-22T07:21:25;26.30;97.60
19665;DHT22;9980;51.020;7.772;2023-06-22T07:23:51;26.40;97.40
19665;DHT22;9980;51.020;7.772;2023-06-22T07:26:19;26.40;97.40
19665;DHT22;9980;51.020;7.772;2023-06-22T07:28:46;26.50;97.50
19665;DHT22;9980;51.020;7.772;2023-06-22T07:31:13;26.60;97.20
19665;DHT22;9980;51.020;7.772;2023-06-22T07:33:40;26.60;96.90
19665;DHT22;9980;51.020;7.772;2023-06-22T07:36:06;26.70;97.00
19665;DHT22;9980;51.020;7.772;2023-06-22T07:38:34;26.80;96.90
19665;DHT22;9980;51.020;7.772;2023-06-22T07:41:02;26.80;96.90
19665;DHT22;9980;51.020;7.772;2023-06-22T07:43:32;26.90;96.60
19665;DHT22;9980;51.020;7.772;2023-06-22T07:46:00;27.00;96.80
19665;DHT22;9980;51.020;7.772;2023-06-22T07:48:28;27.10;96.60
19665;DHT22;9980;51.020;7.772;2023-06-22T07:50:55;27.10;96.30
19665;DHT22;9980;51.020;7.772;2023-06-22T07:53:22;27.20;96.60
19665;DHT22;9980;51.020;7.772;2023-06-22T07:55:50;27.30;96.10
19665;DHT22;9980;51.020;7.772;2023-06-22T07:58:17;27.30;95.90
19665;DHT22;9980;51.020;7.772;2023-06-22T08:00:46;27.40;95.60
19665;DHT22;9980;51.020;7.772;2023-06-22T08:03:13;27.50;95.70
19665;DHT22;9980;51.020;7.772;2023-06-22T08:05:40;27.60;95.20
19665;DHT22;9980;51.020;7.772;2023-06-22T08:08:07;27.60;95.50
19665;DHT22;9980;51.020;7.772;2023-06-22T08:10:34;27.60;95.50
19665;DHT22;9980;51.020;7.772;2023-06-22T08:13:01;27.70;95.30
19665;DHT22;9980;51.020;7.772;2023-06-22T08:15:28;27.70;95.10
19665;DHT22;9980;51.020;7.772;2023-06-22T08:17:55;27.90;95.00
19665;DHT22;9980;51.020;7.772;2023-06-22T08:20:24;27.90;95.10
19665;DHT22;9980;51.020;7.772;2023-06-22T08:22:53;28.00;95.00
19665;DHT22;9980;51.020;7.772;2023-06-22T08:25:21;28.10;95.10
19665;DHT22;9980;51.020;7.772;2023-06-22T08:27:48;28.20;94.90
19665;DHT22;9980;51.020;7.772;2023-06-22T08:30:16;28.30;94.90
19665;DHT22;9980;51.020;7.772;2023-06-22T08:32:44;28.40;94.90
19665;DHT22;9980;51.020;7.772;2023-06-22T08:35:11;28.50;94.90
19665;DHT22;9980;51.020;7.772;2023-06-22T08:37:38;28.60;95.20
19665;DHT22;9980;51.020;7.772;2023-06-22T08:40:08;28.70;94.60
19665;DHT22;9980;51.020;7.772;2023-06-22T08:42:36;28.80;94.50
19665;DHT22;9980;51.020;7.772;2023-06-22T08:45:05;28.80;94.30
19665;DHT22;9980;51.020;7.772;2023-06-22T08:47:32;28.80;94.40
19665;DHT22;9980;51.020;7.772;2023-06-22T08:49:59;28.90;94.30
19665;DHT22;9980;51.020;7.772;2023-06-22T08:52:29;28.90;94.60
19665;DHT22;9980;51.020;7.772;2023-06-22T08:54:56;28.90;94.40
19665;DHT22;9980;51.020;7.772;2023-06-22T08:57:24;28.90;94.50
19665;DHT22;9980;51.020;7.772;2023-06-22T08:59:52;28.90;94.40
19665;DHT22;9980;51.020;7.772;2023-06-22T09:02:19;29.00;94.60
19665;DHT22;9980;51.020;7.772;2023-06-22T09:04:46;29.00;94.40
19665;DHT22;9980;51.020;7.772;2023-06-22T09:07:14;29.10;94.30
19665;DHT22;9980;51.020;7.772;2023-06-22T09:09:41;29.20;94.30
19665;DHT22;9980;51.020;7.772;2023-06-22T09:12:08;29.30;93.90
19665;DHT22;9980;51.020;7.772;2023-06-22T09:14:36;29.40;93.80
19665;DHT22;9980;51.020;7.772;2023-06-22T09:17:03;29.50;93.80
19665;DHT22;9980;51.020;7.772;2023-06-22T09:19:30;29.50;94.00
19665;DHT22;9980;51.020;7.772;2023-06-22T09:21:57;29.60;93.70
19665;DHT22;9980;51.020;7.772;2023-06-22T09:24:24;29.60;93.40
19665;DHT22;9980;51.020;7.772;2023-06-22T09:26:50;29.70;93.80
19665;DHT22;9980;51.020;7.772;2023-06-22T09:29:17;29.80;93.40
19665;DHT22;9980;51.020;7.772;2023-06-22T09:31:44;29.90;93.10
19665;DHT22;9980;51.020;7.772;2023-06-22T09:34:11;29.90;92.70
19665;DHT22;9980;51.020;7.772;2023-06-22T09:36:38;30.10;92.60
19665;DHT22;9980;51.020;7.772;2023-06-22T09:39:07;30.20;92.60
19665;DHT22;9980;51.020;7.772;2023-06-22T09:41:34;30.30;92.20
19665;DHT22;9980;51.020;7.772;2023-06-22T09:44:01;30.40;91.90
19665;DHT22;9980;51.020;7.772;2023-06-22T09:46:28;30.50;91.50
19665;DHT22;9980;51.020;7.772;2023-06-22T09:48:55;30.50;91.30
19665;DHT22;9980;51.020;7.772;2023-06-22T09:51:22;30.60;91.40
19665;DHT22;9980;51.020;7.772;2023-06-22T09:53:51;30.70;90.80
19665;DHT22;9980;51.020;7.772;2023-06-22T09:56:20;30.70;90.90
19665;DHT22;9980;51.020;7.772;2023-06-22T09:58:47;30.80;90.80
19665;DHT22;9980;51.020;7.772;2023-06-22T10:01:14;30.80;90.80
19665;DHT22;9980;51.020;7.772;2023-06-22T10:03:41;30.90;90.40
19665;DHT22;9980;51.020;7.772;2023-06-22T10:06:08;31.00;90.00
19665;DHT22;9980;51.020;7.772;2023-06-22T10:08:35;31.00;89.70
19665;DHT22;9980;51.020;7.772;2023-06-22T10:11:03;31.00;89.80
19665;DHT22;9980;51.020;7.772;2023-06-22T10:13:30;31.10;90.20
19665;DHT22;9980;51.020;7.772;2023-06-22T10:15:57;31.20;89.50
19665;DHT22;9980;51.020;7.772;2023-06-22T10:18:24;31.20;88.80
19665;DHT22;9980;51.020;7.772;2023-06-22T10:20:52;31.30;87.80
19665;DHT22;9980;51.020;7.772;2023-06-22T10:23:22;31.40;86.60
19665;DHT22;9980;51.020;7.772;2023-06-22T10:25:49;31.30;85.70
19665;DHT22;9980;51.020;7.772;2023-06-22T10:28:16;31.30;86.20
19665;DHT22;9980;51.020;7.772;2023-06-22T10:30:43;31.40;86.10
19665;DHT22;9980;51.020;7.772;2023-06-22T10:33:11;31.30;85.90
19665;DHT22;9980;51.020;7.772;2023-06-22T10:35:39;31.30;85.00
19665;DHT22;9980;51.020;7.772;2023-06-22T10:38:06;31.20;85.50
19665;DHT22;9980;51.020;7.772;2023-06-22T10:40:34;31.10;84.80
19665;DHT22;9980;51.020;7.772;2023-06-22T10:43:01;31.10;84.90
19665;DHT22;9980;51.020;7.772;2023-06-22T10:45:28;31.10;84.80
19665;DHT22;9980;51.020;7.772;2023-06-22T10:47:56;31.00;84.70
19665;DHT22;9980;51.020;7.772;2023-06-22T10:50:24;30.90;84.70
19665;DHT22;9980;51.020;7.772;2023-06-22T10:52:52;30.80;85.10
19665;DHT22;9980;51.020;7.772;2023-06-22T10:55:19;30.70;85.20
19665;DHT22;9980;51.020;7.772;2023-06-22T10:57:46;30.60;86.10
19665;DHT22;9980;51.020;7.772;2023-06-22T11:00:15;30.60;86.40
19665;DHT22;9980;51.020;7.772;2023-06-22T11:02:43;30.50;86.70
19665;DHT22;9980;51.020;7.772;2023-06-22T11:05:11;30.50;86.50
19665;DHT22;9980;51.020;7.772;2023-06-22T11:07:42;30.40;87.80
19665;DHT22;9980;51.020;7.772;2023-06-22T11:10:15;30.30;89.50
19665;DHT22;9980;51.020;7.772;2023-06-22T11:12:42;30.20;90.40
19665;DHT22;9980;51.020;7.772;2023-06-22T11:15:09;30.20;90.80
19665;DHT22;9980;51.020;7.772;2023-06-22T11:17:36;30.10;91.20
19665;DHT22;9980;51.020;7.772;2023-06-22T11:20:04;30.00;91.20
19665;DHT22;9980;51.020;7.772;2023-06-22T11:22:38;29.90;91.30
19665;DHT22;9980;51.020;7.772;2023-06-22T11:25:07;29.90;92.10
19665;DHT22;9980;51.020;7.772;2023-06-22T11:27:35;29.80;92.60
19665;DHT22;9980;51.020;7.772;2023-06-22T11:30:02;29.80;93.10
19665;DHT22;9980;51.020;7.772;2023-06-22T11:32:29;29.70;93.20
19665;DHT22;9980;51.020;7.772;2023-06-22T11:34:57;29.60;93.20
19665;DHT22;9980;51.020;7.772;2023-06-22T11:37:23;29.60;93.30
19665;DHT22;9980;51.020;7.772;2023-06-22T11:39:51;29.50;93.10
19665;DHT22;9980;51.020;7.772;2023-06-22T11:42:25;29.40;93.40
19665;DHT22;9980;51.020;7.772;2023-06-22T11:44:51;29.40;93.60
19665;DHT22;9980;51.020;7.772;2023-06-22T11:47:18;29.30;93.90
19665;DHT22;9980;51.020;7.772;2023-06-22T11:49:45;29.20;94.00
19665;DHT22;9980;51.020;7.772;2023-06-22T11:52:13;29.10;94.00
19665;DHT22;9980;51.020;7.772;2023-06-22T11:54:39;29.10;94.20
19665;DHT22;9980;51.020;7.772;2023-06-22T11:57:06;29.00;94.40
19665;DHT22;9980;51.020;7.772;2023-06-22T11:59:33;28.90;94.40
19665;DHT22;9980;51.020;7.772;2023-06-22T12:02:00;28.80;94.40
19665;DHT22;9980;51.020;7.772;2023-06-22T12:04:27;28.70;94.50
19665;DHT22;9980;51.020;7.772;2023-06-22T12:06:54;28.60;94.80
19665;DHT22;9980;51.020;7.772;2023-06-22T12:09:21;28.50;95.00
19665;DHT22;9980;51.020;7.772;2023-06-22T12:11:48;28.40;95.10
19665;DHT22;9980;51.020;7.772;2023-06-22T12:14:15;28.30;95.20
19665;DHT22;9980;51.020;7.772;2023-06-22T12:16:42;28.20;95.20
19665;DHT22;9980;51.020;7.772;2023-06-22T12:19:11;28.10;95.30
19665;DHT22;9980;51.020;7.772;2023-06-22T12:21:38;28.00;95.40
19665;DHT22;9980;51.020;7.772;2023-06-22T12:24:07;27.90;95.60
19665;DHT22;9980;51.020;7.772;2023-06-22T12:26:34;27.80;95.40
19665;DHT22;9980;51.020;7.772;2023-06-22T12:29:01;27.70;95.50
19665;DHT22;9980;51.020;7.772;2023-06-22T12:31:28;27.70;95.70
19665;DHT22;9980;51.020;7.772;2023-06-22T12:33:55;27.60;95.90
19665;DHT22;9980;51.020;7.772;2023-06-22T12:36:22;27.50;96.10
19665;DHT22;9980;51.020;7.772;2023-06-22T12:38:49;27.50;96.30
19665;DHT22;9980;51.020;7.772;2023-06-22T12:41:15;27.40;96.40
19665;DHT22;9980;51.020;7.772;2023-06-22T12:43:42;27.30;96.60
19665;DHT22;9980;51.020;7.772;2023-06-22T12:46:09;27.30;96.90
19665;DHT22;9980;51.020;7.772;2023-06-22T12:48:36;27.30;97.10
19665;DHT22;9980;51.020;7.772;2023-06-22T12:51:09;27.30;97.30
19665;DHT22;9980;51.020;7.772;2023-06-22T12:53:36;27.30;97.70
19665;DHT22;9980;51.020;7.772;2023-06-22T12:56:03;27.40;98.10
19665;DHT22;9980;51.020;7.772;2023-06-22T12:58:30;27.40;98.40
19665;DHT22;9980;51.020;7.772;2023-06-22T13:00:57;27.50;99.00
19665;DHT22;9980;51.020;7.772;2023-06-22T13:03:24;27.60;99.20
19665;DHT22;9980;51.020;7.772;2023-06-22T13:05:53;27.70;98.90
19665;DHT22;9980;51.020;7.772;2023-06-22T13:08:20;27.80;98.60
19665;DHT22;9980;51.020;7.772;2023-06-22T13:10:47;28.00;98.60
19665;DHT22;9980;51.020;7.772;2023-06-22T13:13:15;28.10;98.20
19665;DHT22;9980;51.020;7.772;2023-06-22T13:15:42;28.30;98.40
19665;DHT22;9980;51.020;7.772;2023-06-22T13:18:09;28.50;98.30
19665;DHT22;9980;51.020;7.772;2023-06-22T13:20:36;28.70;97.90
19665;DHT22;9980;51.020;7.772;2023-06-22T13:23:02;28.90;97.70
19665;DHT22;9980;51.020;7.772;2023-06-22T13:25:29;29.00;97.70
19665;DHT22;9980;51.020;7.772;2023-06-22T13:27:57;29.10;97.40
19665;DHT22;9980;51.020;7.772;2023-06-22T13:30:24;29.20;97.40
19665;DHT22;9980;51.020;7.772;2023-06-22T13:32:51;29.40;96.90
19665;DHT22;9980;51.020;7.772;2023-06-22T13:35:18;29.50;96.40
19665;DHT22;9980;51.020;7.772;2023-06-22T13:37:45;29.50;96.00
19665;DHT22;9980;51.020;7.772;2023-06-22T13:40:12;29.60;96.00
19665;DHT22;9980;51.020;7.772;2023-06-22T13:42:39;29.60;95.90
19665;DHT22;9980;51.020;7.772;2023-06-22T13:45:06;29.60;96.00
19665;DHT22;9980;51.020;7.772;2023-06-22T13:47:34;29.70;96.20
19665;DHT22;9980;51.020;7.772;2023-06-22T13:50:01;29.80;96.20
19665;DHT22;9980;51.020;7.772;2023-06-22T13:52:28;29.90;95.80
19665;DHT22;9980;51.020;7.772;2023-06-22T13:54:55;30.00;95.60
19665;DHT22;9980;51.020;7.772;2023-06-22T13:57:22;30.10;95.20
19665;DHT22;9980;51.020;7.772;2023-06-22T13:59:49;30.10;95.40
19665;DHT22;9980;51.020;7.772;2023-06-22T14:02:16;30.20;95.40
19665;DHT22;9980;51.020;7.772;2023-06-22T14:04:43;30.20;95.10
19665;DHT22;9980;51.020;7.772;2023-06-22T14:07:10;30.20;95.00
19665;DHT22;9980;51.020;7.772;2023-06-22T14:09:38;30.30;95.00
19665;DHT22;9980;51.020;7.772;2023-06-22T14:12:06;30.30;94.60
19665;DHT22;9980;51.020;7.772;2023-06-22T14:14:34;30.30;94.40
19665;DHT22;9980;51.020;7.772;2023-06-22T14:17:01;30.30;94.20
19665;DHT22;9980;51.020;7.772;2023-06-22T14:19:28;30.30;93.90
19665;DHT22;9980;51.020;7.772;2023-06-22T14:21:55;30.30;93.90
19665;DHT22;9980;51.020;7.772;2023-06-22T14:24:23;30.30;94.00
19665;DHT22;9980;51.020;7.772;2023-06-22T14:26:54;30.30;94.40
19665;DHT22;9980;51.020;7.772;2023-06-22T14:29:22;30.30;94.10
19665;DHT22;9980;51.020;7.772;2023-06-22T14:31:49;30.20;94.20
19665;DHT22;9980;51.020;7.772;2023-06-22T14:34:16;30.20;94.20
19665;DHT22;9980;51.020;7.772;2023-06-22T14:36:43;30.20;93.90
19665;DHT22;9980;51.020;7.772;2023-06-22T14:39:10;30.20;93.80
19665;DHT22;9980;51.020;7.772;2023-06-22T14:41:37;30.20;93.90
19665;DHT22;9980;51.020;7.772;2023-06-22T14:44:04;30.10;93.80
19665;DHT22;9980;51.020;7.772;2023-06-22T14:46:31;30.10;94.20
19665;DHT22;9980;51.020;7.772;2023-06-22T14:48:58;30.00;93.90
19665;DHT22;9980;51.020;7.772;2023-06-22T14:51:25;29.90;93.90
19665;DHT22;9980;51.020;7.772;2023-06-22T14:53:53;29.90;93.90
19665;DHT22;9980;51.020;7.772;2023-06-22T14:56:20;29.80;94.00
19665;DHT22;9980;51.020;7.772;2023-06-22T14:58:47;29.70;94.20
19665;DHT22;9980;51.020;7.772;2023-06-22T15:01:15;29.60;94.10
19665;DHT22;9980;51.020;7.772;2023-06-22T15:03:43;29.50;94.20
19665;DHT22;9980;51.020;7.772;2023-06-22T15:06:11;29.50;94.20
19665;DHT22;9980;51.020;7.772;2023-06-22T15:08:39;29.40;94.10
19665;DHT22;9980;51.020;7.772;2023-06-22T15:11:09;29.30;94.20
19665;DHT22;9980;51.020;7.772;2023-06-22T15:13:39;29.10;94.20
19665;DHT22;9980;51.020;7.772;2023-06-22T15:16:07;29.10;94.40
19665;DHT22;9980;51.020;7.772;2023-06-22T15:18:35;28.90;94.50
19665;DHT22;9980;51.020;7.772;2023-06-22T15:21:03;28.90;95.10
19665;DHT22;9980;51.020;7.772;2023-06-22T15:23:31;28.80;94.40
19665;DHT22;9980;51.020;7.772;2023-06-22T15:26:02;28.60;93.00
19665;DHT22;9980;51.020;7.772;2023-06-22T15:28:33;28.50;92.60
19665;DHT22;9980;51.020;7.772;2023-06-22T15:31:01;28.30;92.40
19665;DHT22;9980;51.020;7.772;2023-06-22T15:33:28;28.10;92.60
19665;DHT22;9980;51.020;7.772;2023-06-22T15:35:58;27.80;92.50
19665;DHT22;9980;51.020;7.772;2023-06-22T15:38:30;27.60;92.60
19665;DHT22;9980;51.020;7.772;2023-06-22T15:40:58;27.40;92.80
19665;DHT22;9980;51.020;7.772;2023-06-22T15:43:25;27.10;93.20
19665;DHT22;9980;51.020;7.772;2023-06-22T15:45:53;26.90;93.30
19665;DHT22;9980;51.020;7.772;2023-06-22T15:48:21;26.70;93.60
19665;DHT22;9980;51.020;7.772;2023-06-22T15:50:49;26.60;93.90
19665;DHT22;9980;51.020;7.772;2023-06-22T15:53:16;26.40;94.20
19665;DHT22;9980;51.020;7.772;2023-06-22T15:55:43;26.30;94.30
19665;DHT22;9980;51.020;7.772;2023-06-22T15:58:10;26.10;94.50